sensor_id;sensor_type;location;lat;lon;timestamp;temperature;humidity
16929;DHT22;8581;47.334;11.190;2023-02-22T00:02:17;-0.50;99.90
16929;DHT22;8581;47.334;11.190;2023-02-22T00:04:49;-0.50;99.90
16929;DHT22;8581;47.334;11.190;2023-02-22T00:07:21;-0.60;99.90
16929;DHT22;8581;47.334;11.190;2023-02-22T00:09:52;-0.40;99.90
16929;DHT22;8581;47.334;11.190;2023-02-22T00:12:24;-0.50;99.90
16929;DHT22;8581;47.334;11.190;2023-02-22T00:14:56;-0.60;99.90
16929;DHT22;8581;47.334;11.190;2023-02-22T00:17:27;-0.70;99.90
16929;DHT22;8581;47.334;11.190;2023-02-22T00:19:59;-0.70;99.90
16929;DHT22;8581;47.334;11.190;2023-02-22T00:22:30;-0.60;99.90
16929;DHT22;8581;47.334;11.190;2023-02-22T00:25:02;-0.50;99.90
16929;DHT22;8581;47.334;11.190;2023-02-22T00:27:34;-0.50;99.90
16929;DHT22;8581;47.334;11.190;2023-02-22T00:30:06;-0.50;99.90
16929;DHT22;8581;47.334;11.190;2023-02-22T00:32:38;-0.50;99.90
16929;DHT22;8581;47.334;11.190;2023-02-22T00:35:10;-0.40;99.90
16929;DHT22;8581;47.334;11.190;2023-02-22T00:37:41;-0.50;99.90
16929;DHT22;8581;47.334;11.190;2023-02-22T00:40:15;-0.50;99.90
16929;DHT22;8581;47.334;11.190;2023-02-22T00:42:45;-0.50;99.90
16929;DHT22;8581;47.334;11.190;2023-02-22T00:45:17;-0.60;99.90
16929;DHT22;8581;47.334;11.190;2023-02-22T00:47:48;-0.50;99.90
16929;DHT22;8581;47.334;11.190;2023-02-22T00:50:19;-0.40;99.90
16929;DHT22;8581;47.334;11.190;2023-02-22T00:52:51;-0.40;99.90
16929;DHT22;8581;47.334;11.190;2023-02-22T00:55:24;-0.20;99.90
16929;DHT22;8581;47.334;11.190;2023-02-22T00:57:55;-0.40;99.90
16929;DHT22;8581;47.334;11.190;2023-02-22T01:00:30;-0.50;99.90
16929;DHT22;8581;47.334;11.190;2023-02-22T01:02:59;-0.50;99.90
16929;DHT22;8581;47.334;11.190;2023-02-22T01:05:31;-0.50;99.90
16929;DHT22;8581;47.334;11.190;2023-02-22T01:08:03;-0.50;99.90
16929;DHT22;8581;47.334;11.190;2023-02-22T01:10:35;-0.50;99.90
16929;DHT22;8581;47.334;11.190;2023-02-22T01:13:07;-0.60;99.90
16929;DHT22;8581;47.334;11.190;2023-02-22T01:15:39;-0.70;99.90
16929;DHT22;8581;47.334;11.190;2023-02-22T01:18:10;-0.70;99.90
16929;DHT22;8581;47.334;11.190;2023-02-22T01:20:41;-0.80;99.90
16929;DHT22;8581;47.334;11.190;2023-02-22T01:23:13;-0.80;99.90
16929;DHT22;8581;47.334;11.190;2023-02-22T01:25:44;-0.70;99.90
16929;DHT22;8581;47.334;11.190;2023-02-22T01:28:16;-0.70;99.90
16929;DHT22;8581;47.334;11.190;2023-02-22T01:30:48;-0.80;99.90
16929;DHT22;8581;47.334;11.190;2023-02-22T01:33:19;-0.80;99.90
16929;DHT22;8581;47.334;11.190;2023-02-22T01:35:51;-0.80;99.90
16929;DHT22;8581;47.334;11.190;2023-02-22T01:38:22;-0.90;99.90
16929;DHT22;8581;47.334;11.190;2023-02-22T01:40:54;-1.00;99.90
16929;DHT22;8581;47.334;11.190;2023-02-22T01:43:27;-1.00;99.90
16929;DHT22;8581;47.334;11.190;2023-02-22T01:46:06;-1.10;99.90
16929;DHT22;8581;47.334;11.190;2023-02-22T01:48:40;-1.10;99.90
16929;DHT22;8581;47.334;11.190;2023-02-22T01:51:14;-1.20;99.90
16929;DHT22;8581;47.334;11.190;2023-02-22T01:53:49;-1.00;99.90
16929;DHT22;8581;47.334;11.190;2023-02-22T01:56:20;-1.10;99.90
16929;DHT22;8581;47.334;11.190;2023-02-22T01:58:55;-1.00;99.90
16929;DHT22;8581;47.334;11.190;2023-02-22T02:01:25;-1.10;99.90
16929;DHT22;8581;47.334;11.190;2023-02-22T02:03:56;-1.10;99.90
16929;DHT22;8581;47.334;11.190;2023-02-22T02:06:30;-1.20;99.90
16929;DHT22;8581;47.334;11.190;2023-02-22T02:09:29;-1.20;99.90
16929;DHT22;8581;47.334;11.190;2023-02-22T02:11:59;-1.20;99.90
16929;DHT22;8581;47.334;11.190;2023-02-22T02:14:31;-1.10;99.90
16929;DHT22;8581;47.334;11.190;2023-02-22T02:17:02;-1.00;99.90
16929;DHT22;8581;47.334;11.190;2023-02-22T02:19:56;-1.00;99.90
16929;DHT22;8581;47.334;11.190;2023-02-22T02:22:39;-0.80;99.90
16929;DHT22;8581;47.334;11.190;2023-02-22T02:25:27;-0.80;99.90
16929;DHT22;8581;47.334;11.190;2023-02-22T02:28:04;-0.90;99.90
16929;DHT22;8581;47.334;11.190;2023-02-22T02:30:38;-1.00;99.90
16929;DHT22;8581;47.334;11.190;2023-02-22T02:33:18;-1.10;99.90
16929;DHT22;8581;47.334;11.190;2023-02-22T02:35:56;-1.10;99.90
16929;DHT22;8581;47.334;11.190;2023-02-22T02:41:26;-1.20;99.90
16929;DHT22;8581;47.334;11.190;2023-02-22T02:44:08;-1.30;99.90
16929;DHT22;8581;47.334;11.190;2023-02-22T02:49:16;-1.40;99.90
16929;DHT22;8581;47.334;11.190;2023-02-22T02:51:47;-1.40;99.90
16929;DHT22;8581;47.334;11.190;2023-02-22T02:54:17;-1.40;99.90
16929;DHT22;8581;47.334;11.190;2023-02-22T02:56:49;-1.40;99.90
16929;DHT22;8581;47.334;11.190;2023-02-22T02:59:26;-1.40;99.90
16929;DHT22;8581;47.334;11.190;2023-02-22T03:02:01;-1.40;99.90
16929;DHT22;8581;47.334;11.190;2023-02-22T03:12:50;-1.40;99.90
16929;DHT22;8581;47.334;11.190;2023-02-22T03:15:42;-1.40;99.90
16929;DHT22;8581;47.334;11.190;2023-02-22T03:18:14;-1.50;99.90
16929;DHT22;8581;47.334;11.190;2023-02-22T03:20:49;-1.50;99.90
16929;DHT22;8581;47.334;11.190;2023-02-22T03:23:26;-1.20;99.90
16929;DHT22;8581;47.334;11.190;2023-02-22T03:26:08;-1.20;99.90
16929;DHT22;8581;47.334;11.190;2023-02-22T03:28:39;-1.30;99.90
16929;DHT22;8581;47.334;11.190;2023-02-22T03:31:14;-1.40;99.90
16929;DHT22;8581;47.334;11.190;2023-02-22T03:33:45;-1.40;99.90
16929;DHT22;8581;47.334;11.190;2023-02-22T03:36:32;-1.20;99.90
16929;DHT22;8581;47.334;11.190;2023-02-22T03:39:02;-1.30;99.90
16929;DHT22;8581;47.334;11.190;2023-02-22T03:41:34;-1.40;99.90
16929;DHT22;8581;47.334;11.190;2023-02-22T03:44:07;-1.40;99.90
16929;DHT22;8581;47.334;11.190;2023-02-22T03:46:37;-1.40;99.90
16929;DHT22;8581;47.334;11.190;2023-02-22T03:49:10;-1.40;99.90
16929;DHT22;8581;47.334;11.190;2023-02-22T03:51:40;-1.30;99.90
16929;DHT22;8581;47.334;11.190;2023-02-22T03:54:12;-1.40;99.90
16929;DHT22;8581;47.334;11.190;2023-02-22T03:56:48;-1.50;99.90
16929;DHT22;8581;47.334;11.190;2023-02-22T03:59:18;-1.50;99.90
16929;DHT22;8581;47.334;11.190;2023-02-22T04:01:51;-1.50;99.90
16929;DHT22;8581;47.334;11.190;2023-02-22T04:04:28;-1.40;99.90
16929;DHT22;8581;47.334;11.190;2023-02-22T04:06:59;-1.30;99.90
16929;DHT22;8581;47.334;11.190;2023-02-22T04:09:31;-1.40;99.90
16929;DHT22;8581;47.334;11.190;2023-02-22T04:12:03;-1.50;99.90
16929;DHT22;8581;47.334;11.190;2023-02-22T04:14:35;-1.50;99.90
16929;DHT22;8581;47.334;11.190;2023-02-22T04:17:06;-1.50;99.90
16929;DHT22;8581;47.334;11.190;2023-02-22T04:19:38;-1.50;99.90
16929;DHT22;8581;47.334;11.190;2023-02-22T04:22:10;-1.60;99.90
16929;DHT22;8581;47.334;11.190;2023-02-22T04:24:41;-1.60;99.90
16929;DHT22;8581;47.334;11.190;2023-02-22T04:27:13;-1.60;99.90
16929;DHT22;8581;47.334;11.190;2023-02-22T04:29:44;-1.70;99.90
16929;DHT22;8581;47.334;11.190;2023-02-22T04:32:16;-1.70;99.90
16929;DHT22;8581;47.334;11.190;2023-02-22T04:34:47;-1.80;99.90
16929;DHT22;8581;47.334;11.190;2023-02-22T04:37:19;-1.70;99.90
16929;DHT22;8581;47.334;11.190;2023-02-22T04:39:51;-1.70;99.90
16929;DHT22;8581;47.334;11.190;2023-02-22T04:42:22;-1.60;99.90
16929;DHT22;8581;47.334;11.190;2023-02-22T04:44:54;-1.70;99.90
16929;DHT22;8581;47.334;11.190;2023-02-22T04:47:25;-1.50;99.90
16929;DHT22;8581;47.334;11.190;2023-02-22T04:49:57;-1.40;99.90
16929;DHT22;8581;47.334;11.190;2023-02-22T04:52:29;-1.50;99.90
16929;DHT22;8581;47.334;11.190;2023-02-22T04:55:00;-1.60;99.90
16929;DHT22;8581;47.334;11.190;2023-02-22T04:57:32;-1.70;99.90
16929;DHT22;8581;47.334;11.190;2023-02-22T05:00:05;-1.80;99.90
16929;DHT22;8581;47.334;11.190;2023-02-22T05:02:37;-1.80;99.90
16929;DHT22;8581;47.334;11.190;2023-02-22T05:05:08;-1.90;99.90
16929;DHT22;8581;47.334;11.190;2023-02-22T05:07:40;-1.80;99.90
16929;DHT22;8581;47.334;11.190;2023-02-22T05:10:12;-1.70;99.90
16929;DHT22;8581;47.334;11.190;2023-02-22T05:12:43;-1.60;99.90
16929;DHT22;8581;47.334;11.190;2023-02-22T05:15:16;-1.70;99.90
16929;DHT22;8581;47.334;11.190;2023-02-22T05:17:46;-1.80;99.90
16929;DHT22;8581;47.334;11.190;2023-02-22T05:20:23;-1.80;99.90
16929;DHT22;8581;47.334;11.190;2023-02-22T05:22:54;-1.90;99.90
16929;DHT22;8581;47.334;11.190;2023-02-22T05:25:26;-1.90;99.90
16929;DHT22;8581;47.334;11.190;2023-02-22T05:28:01;-1.90;99.90
16929;DHT22;8581;47.334;11.190;2023-02-22T05:30:32;-2.00;99.90
16929;DHT22;8581;47.334;11.190;2023-02-22T05:33:02;-1.90;99.90
16929;DHT22;8581;47.334;11.190;2023-02-22T05:35:34;-1.80;99.90
16929;DHT22;8581;47.334;11.190;2023-02-22T05:38:06;-1.80;99.90
16929;DHT22;8581;47.334;11.190;2023-02-22T05:40:37;-2.30;99.90
16929;DHT22;8581;47.334;11.190;2023-02-22T05:43:09;-1.80;99.90
16929;DHT22;8581;47.334;11.190;2023-02-22T05:45:40;-1.80;99.90
16929;DHT22;8581;47.334;11.190;2023-02-22T05:48:12;-1.80;99.90
16929;DHT22;8581;47.334;11.190;2023-02-22T05:50:44;-1.90;99.90
16929;DHT22;8581;47.334;11.190;2023-02-22T05:53:15;-1.90;99.90
16929;DHT22;8581;47.334;11.190;2023-02-22T05:55:47;-1.70;99.90
16929;DHT22;8581;47.334;11.190;2023-02-22T05:58:18;-1.80;99.90
16929;DHT22;8581;47.334;11.190;2023-02-22T06:00:50;-1.90;99.90
16929;DHT22;8581;47.334;11.190;2023-02-22T06:03:22;-2.00;99.90
16929;DHT22;8581;47.334;11.190;2023-02-22T06:05:53;-2.00;99.90
16929;DHT22;8581;47.334;11.190;2023-02-22T06:08:25;-2.00;99.90
16929;DHT22;8581;47.334;11.190;2023-02-22T06:10:57;-1.80;99.90
16929;DHT22;8581;47.334;11.190;2023-02-22T06:13:28;-1.90;99.90
16929;DHT22;8581;47.334;11.190;2023-02-22T06:16:00;-1.80;99.90
16929;DHT22;8581;47.334;11.190;2023-02-22T06:18:31;-1.90;99.90
16929;DHT22;8581;47.334;11.190;2023-02-22T06:21:03;-1.80;99.90
16929;DHT22;8581;47.334;11.190;2023-02-22T06:23:35;-1.80;99.90
16929;DHT22;8581;47.334;11.190;2023-02-22T06:26:06;-1.70;99.90
16929;DHT22;8581;47.334;11.190;2023-02-22T06:28:38;-1.70;99.90
16929;DHT22;8581;47.334;11.190;2023-02-22T06:31:09;-1.80;99.90
16929;DHT22;8581;47.334;11.190;2023-02-22T06:33:41;-1.80;99.90
16929;DHT22;8581;47.334;11.190;2023-02-22T06:36:13;-1.40;99.90
16929;DHT22;8581;47.334;11.190;2023-02-22T06:38:44;-1.30;99.90
16929;DHT22;8581;47.334;11.190;2023-02-22T06:41:16;-1.50;99.90
16929;DHT22;8581;47.334;11.190;2023-02-22T06:43:47;-1.50;99.90
16929;DHT22;8581;47.334;11.190;2023-02-22T06:46:19;-1.50;99.90
16929;DHT22;8581;47.334;11.190;2023-02-22T06:48:51;-1.50;99.90
16929;DHT22;8581;47.334;11.190;2023-02-22T06:51:22;-1.50;99.90
16929;DHT22;8581;47.334;11.190;2023-02-22T06:53:54;-1.40;99.90
16929;DHT22;8581;47.334;11.190;2023-02-22T06:56:26;-1.40;99.90
16929;DHT22;8581;47.334;11.190;2023-02-22T06:58:57;-1.20;99.90
16929;DHT22;8581;47.334;11.190;2023-02-22T07:01:29;-1.20;99.90
16929;DHT22;8581;47.334;11.190;2023-02-22T07:04:01;-1.10;99.90
16929;DHT22;8581;47.334;11.190;2023-02-22T07:06:32;-1.00;99.90
16929;DHT22;8581;47.334;11.190;2023-02-22T07:09:04;-1.00;99.90
16929;DHT22;8581;47.334;11.190;2023-02-22T07:11:37;-0.90;99.90
16929;DHT22;8581;47.334;11.190;2023-02-22T07:14:07;-1.10;99.90
16929;DHT22;8581;47.334;11.190;2023-02-22T07:16:38;-1.00;99.90
16929;DHT22;8581;47.334;11.190;2023-02-22T07:19:10;-1.00;99.90
16929;DHT22;8581;47.334;11.190;2023-02-22T07:21:41;-0.90;99.90
16929;DHT22;8581;47.334;11.190;2023-02-22T07:24:13;-0.90;99.90
16929;DHT22;8581;47.334;11.190;2023-02-22T07:26:45;-0.80;99.90
16929;DHT22;8581;47.334;11.190;2023-02-22T07:29:16;-0.70;99.90
16929;DHT22;8581;47.334;11.190;2023-02-22T07:31:48;-0.60;99.90
16929;DHT22;8581;47.334;11.190;2023-02-22T07:34:19;-0.70;99.90
16929;DHT22;8581;47.334;11.190;2023-02-22T07:36:51;-0.60;99.90
16929;DHT22;8581;47.334;11.190;2023-02-22T07:39:23;-0.60;99.90
16929;DHT22;8581;47.334;11.190;2023-02-22T07:41:54;-0.50;99.90
16929;DHT22;8581;47.334;11.190;2023-02-22T07:44:26;-0.30;99.90
16929;DHT22;8581;47.334;11.190;2023-02-22T07:46:57;-0.10;99.90
16929;DHT22;8581;47.334;11.190;2023-02-22T07:49:29;0.20;99.90
16929;DHT22;8581;47.334;11.190;2023-02-22T07:52:01;0.50;99.90
16929;DHT22;8581;47.334;11.190;2023-02-22T07:54:32;0.60;99.90
16929;DHT22;8581;47.334;11.190;2023-02-22T07:57:04;0.90;99.90
16929;DHT22;8581;47.334;11.190;2023-02-22T07:59:35;1.20;99.90
16929;DHT22;8581;47.334;11.190;2023-02-22T08:02:09;1.50;99.90
16929;DHT22;8581;47.334;11.190;2023-02-22T08:04:39;1.90;99.90
16929;DHT22;8581;47.334;11.190;2023-02-22T08:07:10;2.60;99.90
16929;DHT22;8581;47.334;11.190;2023-02-22T08:09:42;3.20;99.90
16929;DHT22;8581;47.334;11.190;2023-02-22T08:12:13;3.70;99.90
16929;DHT22;8581;47.334;11.190;2023-02-22T08:14:45;4.20;99.90
16929;DHT22;8581;47.334;11.190;2023-02-22T08:17:17;4.70;99.90
16929;DHT22;8581;47.334;11.190;2023-02-22T08:19:48;5.20;99.90
16929;DHT22;8581;47.334;11.190;2023-02-22T08:22:20;5.80;99.90
16929;DHT22;8581;47.334;11.190;2023-02-22T08:24:51;6.30;99.90
16929;DHT22;8581;47.334;11.190;2023-02-22T08:27:23;6.90;99.90
16929;DHT22;8581;47.334;11.190;2023-02-22T08:29:55;7.30;99.90
16929;DHT22;8581;47.334;11.190;2023-02-22T08:32:26;7.60;99.90
16929;DHT22;8581;47.334;11.190;2023-02-22T08:34:58;7.80;99.90
16929;DHT22;8581;47.334;11.190;2023-02-22T08:37:30;8.40;99.90
16929;DHT22;8581;47.334;11.190;2023-02-22T08:40:02;8.90;97.60
16929;DHT22;8581;47.334;11.190;2023-02-22T08:42:34;9.10;96.10
16929;DHT22;8581;47.334;11.190;2023-02-22T08:45:07;9.50;95.80
16929;DHT22;8581;47.334;11.190;2023-02-22T08:47:39;9.80;94.40
16929;DHT22;8581;47.334;11.190;2023-02-22T08:50:14;10.10;93.20
16929;DHT22;8581;47.334;11.190;2023-02-22T08:52:41;10.10;91.80
16929;DHT22;8581;47.334;11.190;2023-02-22T08:55:13;10.50;89.20
16929;DHT22;8581;47.334;11.190;2023-02-22T08:57:45;10.60;88.10
16929;DHT22;8581;47.334;11.190;2023-02-22T09:00:18;10.70;90.10
16929;DHT22;8581;47.334;11.190;2023-02-22T09:02:50;10.90;87.80
16929;DHT22;8581;47.334;11.190;2023-02-22T09:05:21;11.00;84.20
16929;DHT22;8581;47.334;11.190;2023-02-22T09:07:53;11.00;83.80
16929;DHT22;8581;47.334;11.190;2023-02-22T09:10:26;11.10;83.30
16929;DHT22;8581;47.334;11.190;2023-02-22T09:12:56;11.20;84.90
16929;DHT22;8581;47.334;11.190;2023-02-22T09:15:28;11.30;82.20
16929;DHT22;8581;47.334;11.190;2023-02-22T09:18:00;11.70;78.40
16929;DHT22;8581;47.334;11.190;2023-02-22T09:20:31;11.60;77.00
16929;DHT22;8581;47.334;11.190;2023-02-22T09:23:03;11.50;77.60
16929;DHT22;8581;47.334;11.190;2023-02-22T09:25:34;11.80;76.40
16929;DHT22;8581;47.334;11.190;2023-02-22T09:28:06;12.00;74.90
16929;DHT22;8581;47.334;11.190;2023-02-22T09:30:38;12.20;76.00
16929;DHT22;8581;47.334;11.190;2023-02-22T09:33:12;12.40;74.40
16929;DHT22;8581;47.334;11.190;2023-02-22T09:35:41;12.60;73.40
16929;DHT22;8581;47.334;11.190;2023-02-22T09:38:13;12.60;72.90
16929;DHT22;8581;47.334;11.190;2023-02-22T09:40:46;12.90;71.50
16929;DHT22;8581;47.334;11.190;2023-02-22T09:43:22;13.10;72.70
16929;DHT22;8581;47.334;11.190;2023-02-22T09:46:01;13.30;72.50
16929;DHT22;8581;47.334;11.190;2023-02-22T09:48:29;14.00;70.10
16929;DHT22;8581;47.334;11.190;2023-02-22T09:51:00;14.00;67.50
16929;DHT22;8581;47.334;11.190;2023-02-22T09:53:36;13.90;70.10
16929;DHT22;8581;47.334;11.190;2023-02-22T09:56:09;14.20;68.60
16929;DHT22;8581;47.334;11.190;2023-02-22T09:58:40;14.40;65.90
16929;DHT22;8581;47.334;11.190;2023-02-22T10:01:32;14.70;65.60
16929;DHT22;8581;47.334;11.190;2023-02-22T10:06:42;14.10;63.90
16929;DHT22;8581;47.334;11.190;2023-02-22T10:09:13;13.20;64.80
16929;DHT22;8581;47.334;11.190;2023-02-22T10:11:49;13.20;66.20
16929;DHT22;8581;47.334;11.190;2023-02-22T10:17:03;14.70;64.30
16929;DHT22;8581;47.334;11.190;2023-02-22T10:19:41;14.90;63.90
16929;DHT22;8581;47.334;11.190;2023-02-22T10:25:00;15.60;62.00
16929;DHT22;8581;47.334;11.190;2023-02-22T10:27:40;15.80;63.50
16929;DHT22;8581;47.334;11.190;2023-02-22T10:30:20;16.10;61.40
16929;DHT22;8581;47.334;11.190;2023-02-22T10:33:04;16.50;59.80
16929;DHT22;8581;47.334;11.190;2023-02-22T10:35:34;17.00;58.10
16929;DHT22;8581;47.334;11.190;2023-02-22T10:38:14;17.10;58.40
16929;DHT22;8581;47.334;11.190;2023-02-22T10:40:49;17.20;58.50
16929;DHT22;8581;47.334;11.190;2023-02-22T10:43:18;16.90;59.30
16929;DHT22;8581;47.334;11.190;2023-02-22T10:45:51;16.70;59.50
16929;DHT22;8581;47.334;11.190;2023-02-22T10:48:22;17.10;61.20
16929;DHT22;8581;47.334;11.190;2023-02-22T10:50:54;17.40;58.80
16929;DHT22;8581;47.334;11.190;2023-02-22T10:53:25;17.50;59.00
16929;DHT22;8581;47.334;11.190;2023-02-22T10:56:07;17.40;59.00
16929;DHT22;8581;47.334;11.190;2023-02-22T10:58:51;17.20;58.90
16929;DHT22;8581;47.334;11.190;2023-02-22T11:01:37;16.80;58.00
16929;DHT22;8581;47.334;11.190;2023-02-22T11:04:11;16.40;58.20
16929;DHT22;8581;47.334;11.190;2023-02-22T11:06:43;16.50;60.00
16929;DHT22;8581;47.334;11.190;2023-02-22T11:09:16;17.00;58.80
16929;DHT22;8581;47.334;11.190;2023-02-22T11:11:47;17.40;57.60
16929;DHT22;8581;47.334;11.190;2023-02-22T11:14:26;17.20;56.80
16929;DHT22;8581;47.334;11.190;2023-02-22T11:16:56;17.40;56.80
16929;DHT22;8581;47.334;11.190;2023-02-22T11:19:28;18.00;57.20
16929;DHT22;8581;47.334;11.190;2023-02-22T11:22:09;18.10;56.40
16929;DHT22;8581;47.334;11.190;2023-02-22T11:24:32;18.40;56.30
16929;DHT22;8581;47.334;11.190;2023-02-22T11:27:04;18.10;57.10
16929;DHT22;8581;47.334;11.190;2023-02-22T11:29:36;17.90;56.80
16929;DHT22;8581;47.334;11.190;2023-02-22T11:32:13;18.20;55.70
16929;DHT22;8581;47.334;11.190;2023-02-22T11:34:44;18.00;61.30
16929;DHT22;8581;47.334;11.190;2023-02-22T11:37:22;18.60;58.40
16929;DHT22;8581;47.334;11.190;2023-02-22T11:39:52;19.00;57.70
16929;DHT22;8581;47.334;11.190;2023-02-22T11:42:22;19.50;56.60
16929;DHT22;8581;47.334;11.190;2023-02-22T11:45:07;19.80;57.10
16929;DHT22;8581;47.334;11.190;2023-02-22T11:47:53;20.00;56.10
16929;DHT22;8581;47.334;11.190;2023-02-22T11:50:27;19.90;57.00
16929;DHT22;8581;47.334;11.190;2023-02-22T11:55:41;20.70;56.80
16929;DHT22;8581;47.334;11.190;2023-02-22T11:58:22;20.10;55.80
16929;DHT22;8581;47.334;11.190;2023-02-22T12:01:13;20.30;55.90
16929;DHT22;8581;47.334;11.190;2023-02-22T12:03:46;20.60;54.70
16929;DHT22;8581;47.334;11.190;2023-02-22T12:06:18;21.30;54.40
16929;DHT22;8581;47.334;11.190;2023-02-22T12:08:51;21.80;55.30
16929;DHT22;8581;47.334;11.190;2023-02-22T12:11:40;22.00;53.50
16929;DHT22;8581;47.334;11.190;2023-02-22T12:17:21;21.60;52.20
16929;DHT22;8581;47.334;11.190;2023-02-22T12:19:53;21.50;52.90
16929;DHT22;8581;47.334;11.190;2023-02-22T12:22:28;20.60;54.70
16929;DHT22;8581;47.334;11.190;2023-02-22T12:24:59;20.80;55.60
16929;DHT22;8581;47.334;11.190;2023-02-22T12:27:40;20.90;55.70
16929;DHT22;8581;47.334;11.190;2023-02-22T12:30:17;21.70;53.30
16929;DHT22;8581;47.334;11.190;2023-02-22T12:32:53;21.20;52.80
16929;DHT22;8581;47.334;11.190;2023-02-22T12:35:27;21.50;52.60
16929;DHT22;8581;47.334;11.190;2023-02-22T12:40:59;21.30;51.90
16929;DHT22;8581;47.334;11.190;2023-02-22T12:43:34;21.40;52.50
16929;DHT22;8581;47.334;11.190;2023-02-22T12:46:09;22.00;51.30
16929;DHT22;8581;47.334;11.190;2023-02-22T12:48:44;23.40;50.00
16929;DHT22;8581;47.334;11.190;2023-02-22T12:51:34;24.30;49.50
16929;DHT22;8581;47.334;11.190;2023-02-22T12:54:09;24.10;47.40
16929;DHT22;8581;47.334;11.190;2023-02-22T12:56:41;24.30;48.90
16929;DHT22;8581;47.334;11.190;2023-02-22T12:59:19;24.70;48.50
16929;DHT22;8581;47.334;11.190;2023-02-22T13:01:51;25.40;49.60
16929;DHT22;8581;47.334;11.190;2023-02-22T13:04:21;27.30;47.20
16929;DHT22;8581;47.334;11.190;2023-02-22T13:07:27;26.20;46.40
16929;DHT22;8581;47.334;11.190;2023-02-22T13:09:49;26.50;44.40
16929;DHT22;8581;47.334;11.190;2023-02-22T13:18:27;28.40;42.80
16929;DHT22;8581;47.334;11.190;2023-02-22T13:21:01;30.00;41.40
16929;DHT22;8581;47.334;11.190;2023-02-22T13:23:38;30.60;40.50
16929;DHT22;8581;47.334;11.190;2023-02-22T13:26:30;31.00;41.40
16929;DHT22;8581;47.334;11.190;2023-02-22T13:29:04;30.30;41.50
16929;DHT22;8581;47.334;11.190;2023-02-22T13:31:43;29.30;41.60
16929;DHT22;8581;47.334;11.190;2023-02-22T13:34:22;29.70;40.40
16929;DHT22;8581;47.334;11.190;2023-02-22T13:40:16;31.20;41.80
16929;DHT22;8581;47.334;11.190;2023-02-22T13:42:52;30.00;43.70
16929;DHT22;8581;47.334;11.190;2023-02-22T13:48:14;28.70;42.50
16929;DHT22;8581;47.334;11.190;2023-02-22T13:51:08;28.50;43.00
16929;DHT22;8581;47.334;11.190;2023-02-22T13:54:00;30.10;45.00
16929;DHT22;8581;47.334;11.190;2023-02-22T13:56:29;29.70;43.20
16929;DHT22;8581;47.334;11.190;2023-02-22T13:59:02;28.10;43.20
16929;DHT22;8581;47.334;11.190;2023-02-22T14:01:39;27.10;44.20
16929;DHT22;8581;47.334;11.190;2023-02-22T14:04:34;26.30;45.30
16929;DHT22;8581;47.334;11.190;2023-02-22T14:09:48;23.70;49.20
16929;DHT22;8581;47.334;11.190;2023-02-22T14:15:15;22.90;49.60
16929;DHT22;8581;47.334;11.190;2023-02-22T14:17:48;22.90;48.80
16929;DHT22;8581;47.334;11.190;2023-02-22T14:20:22;23.50;48.10
16929;DHT22;8581;47.334;11.190;2023-02-22T14:22:51;24.80;47.90
16929;DHT22;8581;47.334;11.190;2023-02-22T14:25:31;26.80;46.00
16929;DHT22;8581;47.334;11.190;2023-02-22T14:28:03;27.20;46.10
16929;DHT22;8581;47.334;11.190;2023-02-22T14:30:34;28.10;44.50
16929;DHT22;8581;47.334;11.190;2023-02-22T14:33:48;27.40;44.60
16929;DHT22;8581;47.334;11.190;2023-02-22T14:35:38;26.20;45.70
16929;DHT22;8581;47.334;11.190;2023-02-22T14:38:13;25.00;46.70
16929;DHT22;8581;47.334;11.190;2023-02-22T14:40:40;24.10;48.60
16929;DHT22;8581;47.334;11.190;2023-02-22T14:43:14;23.50;48.60
16929;DHT22;8581;47.334;11.190;2023-02-22T14:45:49;22.50;50.30
16929;DHT22;8581;47.334;11.190;2023-02-22T14:48:34;22.10;50.70
16929;DHT22;8581;47.334;11.190;2023-02-22T14:51:16;22.70;51.10
16929;DHT22;8581;47.334;11.190;2023-02-22T14:53:48;23.80;49.50
16929;DHT22;8581;47.334;11.190;2023-02-22T14:56:23;25.30;47.90
16929;DHT22;8581;47.334;11.190;2023-02-22T14:59:01;26.40;44.60
16929;DHT22;8581;47.334;11.190;2023-02-22T15:01:32;26.40;46.20
16929;DHT22;8581;47.334;11.190;2023-02-22T15:06:46;27.20;45.90
16929;DHT22;8581;47.334;11.190;2023-02-22T15:09:20;27.10;44.00
16929;DHT22;8581;47.334;11.190;2023-02-22T15:12:11;26.80;45.70
16929;DHT22;8581;47.334;11.190;2023-02-22T15:14:41;26.40;45.60
16929;DHT22;8581;47.334;11.190;2023-02-22T15:17:17;26.60;45.10
16929;DHT22;8581;47.334;11.190;2023-02-22T15:19:48;25.40;46.20
16929;DHT22;8581;47.334;11.190;2023-02-22T15:22:24;25.50;46.90
16929;DHT22;8581;47.334;11.190;2023-02-22T15:25:00;25.60;46.80
16929;DHT22;8581;47.334;11.190;2023-02-22T15:27:30;25.10;46.60
16929;DHT22;8581;47.334;11.190;2023-02-22T15:30:05;24.50;47.50
16929;DHT22;8581;47.334;11.190;2023-02-22T15:32:38;23.80;48.80
16929;DHT22;8581;47.334;11.190;2023-02-22T15:35:16;23.20;49.20
16929;DHT22;8581;47.334;11.190;2023-02-22T15:37:46;22.40;49.90
16929;DHT22;8581;47.334;11.190;2023-02-22T15:40:18;22.30;50.30
16929;DHT22;8581;47.334;11.190;2023-02-22T15:42:50;21.80;51.20
16929;DHT22;8581;47.334;11.190;2023-02-22T15:45:21;21.00;52.30
16929;DHT22;8581;47.334;11.190;2023-02-22T15:47:53;20.30;53.30
16929;DHT22;8581;47.334;11.190;2023-02-22T15:50:28;19.70;55.40
16929;DHT22;8581;47.334;11.190;2023-02-22T15:53:03;18.50;56.70
16929;DHT22;8581;47.334;11.190;2023-02-22T15:55:39;17.20;59.70
16929;DHT22;8581;47.334;11.190;2023-02-22T15:58:22;16.60;60.70
16929;DHT22;8581;47.334;11.190;2023-02-22T16:00:58;16.50;61.20
16929;DHT22;8581;47.334;11.190;2023-02-22T16:04:00;16.40;62.80
16929;DHT22;8581;47.334;11.190;2023-02-22T16:06:26;15.80;62.00
16929;DHT22;8581;47.334;11.190;2023-02-22T16:08:57;15.40;63.60
16929;DHT22;8581;47.334;11.190;2023-02-22T16:11:30;15.00;64.50
16929;DHT22;8581;47.334;11.190;2023-02-22T16:14:02;14.60;66.30
16929;DHT22;8581;47.334;11.190;2023-02-22T16:16:35;13.80;67.60
16929;DHT22;8581;47.334;11.190;2023-02-22T16:19:43;13.50;68.90
16929;DHT22;8581;47.334;11.190;2023-02-22T16:21:59;12.80;70.60
16929;DHT22;8581;47.334;11.190;2023-02-22T16:24:33;12.70;70.90
16929;DHT22;8581;47.334;11.190;2023-02-22T16:27:20;12.50;72.30
16929;DHT22;8581;47.334;11.190;2023-02-22T16:30:03;12.40;72.90
16929;DHT22;8581;47.334;11.190;2023-02-22T16:32:33;12.00;73.60
16929;DHT22;8581;47.334;11.190;2023-02-22T16:35:05;11.80;73.30
16929;DHT22;8581;47.334;11.190;2023-02-22T16:37:37;11.60;74.70
16929;DHT22;8581;47.334;11.190;2023-02-22T16:40:11;11.40;74.70
16929;DHT22;8581;47.334;11.190;2023-02-22T16:42:41;11.40;75.80
16929;DHT22;8581;47.334;11.190;2023-02-22T16:45:16;11.10;76.80
16929;DHT22;8581;47.334;11.190;2023-02-22T16:47:47;10.90;78.20
16929;DHT22;8581;47.334;11.190;2023-02-22T16:50:21;10.60;78.70
16929;DHT22;8581;47.334;11.190;2023-02-22T16:52:53;10.50;80.70
16929;DHT22;8581;47.334;11.190;2023-02-22T16:55:24;10.40;80.30
16929;DHT22;8581;47.334;11.190;2023-02-22T16:57:56;10.50;79.50
16929;DHT22;8581;47.334;11.190;2023-02-22T17:00:28;10.40;79.50
16929;DHT22;8581;47.334;11.190;2023-02-22T17:03:02;10.30;80.60
16929;DHT22;8581;47.334;11.190;2023-02-22T17:05:33;10.30;80.60